sensor_id;sensor_type;location;lat;lon;timestamp;P1;durP1;ratioP1;P2;durP2;ratioP2
22449;SDS011;11392;57.390;-2.468;2023-07-22T00:00:57;3.97;;;3.15;;
22449;SDS011;11392;57.390;-2.468;2023-07-22T00:03:24;4.63;;;3.20;;
22449;SDS011;11392;57.390;-2.468;2023-07-22T00:06:07;4.35;;;3.00;;
22449;SDS011;11392;57.390;-2.468;2023-07-22T00:08:37;4.80;;;3.50;;
22449;SDS011;11392;57.390;-2.468;2023-07-22T00:11:05;4.55;;;3.10;;
22449;SDS011;11392;57.390;-2.468;2023-07-22T00:13:32;4.93;;;3.35;;
22449;SDS011;11392;57.390;-2.468;2023-07-22T00:16:00;3.67;;;3.05;;
22449;SDS011;11392;57.390;-2.468;2023-07-22T00:18:28;4.63;;;3.47;;
22449;SDS011;11392;57.390;-2.468;2023-07-22T00:20:55;3.08;;;2.40;;
22449;SDS011;11392;57.390;-2.468;2023-07-22T00:23:22;5.03;;;3.58;;
22449;SDS011;11392;57.390;-2.468;2023-07-22T00:25:49;6.15;;;3.92;;
22449;SDS011;11392;57.390;-2.468;2023-07-22T00:28:16;6.57;;;3.50;;
22449;SDS011;11392;57.390;-2.468;2023-07-22T00:30:45;5.47;;;3.10;;
22449;SDS011;11392;57.390;-2.468;2023-07-22T00:33:12;5.43;;;3.33;;
22449;SDS011;11392;57.390;-2.468;2023-07-22T00:35:40;5.65;;;3.78;;
22449;SDS011;11392;57.390;-2.468;2023-07-22T00:38:07;5.95;;;3.45;;
22449;SDS011;11392;57.390;-2.468;2023-07-22T00:40:36;5.70;;;3.55;;
22449;SDS011;11392;57.390;-2.468;2023-07-22T00:43:03;4.63;;;3.22;;
22449;SDS011;11392;57.390;-2.468;2023-07-22T00:45:31;5.43;;;3.50;;
22449;SDS011;11392;57.390;-2.468;2023-07-22T00:47:59;4.35;;;3.38;;
22449;SDS011;11392;57.390;-2.468;2023-07-22T00:50:26;5.50;;;2.95;;
22449;SDS011;11392;57.390;-2.468;2023-07-22T00:52:53;3.63;;;2.92;;
22449;SDS011;11392;57.390;-2.468;2023-07-22T00:55:20;3.78;;;2.83;;
22449;SDS011;11392;57.390;-2.468;2023-07-22T00:57:47;5.20;;;3.28;;
22449;SDS011;11392;57.390;-2.468;2023-07-22T01:00:14;4.32;;;2.90;;
22449;SDS011;11392;57.390;-2.468;2023-07-22T01:02:42;2.88;;;2.35;;
22449;SDS011;11392;57.390;-2.468;2023-07-22T01:05:10;3.60;;;2.72;;
22449;SDS011;11392;57.390;-2.468;2023-07-22T01:07:39;4.03;;;2.88;;
22449;SDS011;11392;57.390;-2.468;2023-07-22T01:10:06;4.90;;;3.67;;
22449;SDS011;11392;57.390;-2.468;2023-07-22T01:12:34;5.13;;;2.95;;
22449;SDS011;11392;57.390;-2.468;2023-07-22T01:15:02;5.22;;;3.00;;
22449;SDS011;11392;57.390;-2.468;2023-07-22T01:17:34;5.90;;;3.25;;
22449;SDS011;11392;57.390;-2.468;2023-07-22T01:20:04;7.00;;;3.80;;
22449;SDS011;11392;57.390;-2.468;2023-07-22T01:22:32;6.38;;;3.67;;
22449;SDS011;11392;57.390;-2.468;2023-07-22T01:25:00;4.25;;;3.25;;
22449;SDS011;11392;57.390;-2.468;2023-07-22T01:27:28;5.50;;;3.53;;
22449;SDS011;11392;57.390;-2.468;2023-07-22T01:29:56;3.83;;;3.35;;
22449;SDS011;11392;57.390;-2.468;2023-07-22T01:32:23;3.78;;;3.35;;
22449;SDS011;11392;57.390;-2.468;2023-07-22T01:34:50;4.03;;;3.10;;
22449;SDS011;11392;57.390;-2.468;2023-07-22T01:37:16;4.47;;;3.30;;
22449;SDS011;11392;57.390;-2.468;2023-07-22T01:39:43;6.30;;;3.30;;
22449;SDS011;11392;57.390;-2.468;2023-07-22T01:42:10;4.57;;;3.38;;
22449;SDS011;11392;57.390;-2.468;2023-07-22T01:44:39;6.20;;;3.60;;
22449;SDS011;11392;57.390;-2.468;2023-07-22T01:47:06;3.85;;;2.95;;
22449;SDS011;11392;57.390;-2.468;2023-07-22T01:49:33;3.13;;;2.83;;
22449;SDS011;11392;57.390;-2.468;2023-07-22T01:52:01;5.05;;;3.40;;
22449;SDS011;11392;57.390;-2.468;2023-07-22T01:54:28;5.55;;;3.60;;
22449;SDS011;11392;57.390;-2.468;2023-07-22T01:56:55;3.75;;;2.97;;
22449;SDS011;11392;57.390;-2.468;2023-07-22T01:59:21;5.43;;;3.30;;
22449;SDS011;11392;57.390;-2.468;2023-07-22T02:01:48;5.82;;;3.33;;
22449;SDS011;11392;57.390;-2.468;2023-07-22T02:04:15;5.32;;;3.53;;
22449;SDS011;11392;57.390;-2.468;2023-07-22T02:06:42;5.93;;;3.13;;
22449;SDS011;11392;57.390;-2.468;2023-07-22T02:09:11;8.27;;;3.38;;
22449;SDS011;11392;57.390;-2.468;2023-07-22T02:11:40;6.13;;;3.22;;
22449;SDS011;11392;57.390;-2.468;2023-07-22T02:14:07;4.07;;;3.15;;
22449;SDS011;11392;57.390;-2.468;2023-07-22T02:16:34;7.55;;;3.40;;
22449;SDS011;11392;57.390;-2.468;2023-07-22T02:19:03;6.82;;;3.25;;
22449;SDS011;11392;57.390;-2.468;2023-07-22T02:21:30;6.65;;;3.30;;
22449;SDS011;11392;57.390;-2.468;2023-07-22T02:23:57;9.50;;;4.10;;
22449;SDS011;11392;57.390;-2.468;2023-07-22T02:26:24;4.93;;;3.17;;
22449;SDS011;11392;57.390;-2.468;2023-07-22T02:28:52;4.07;;;3.10;;
22449;SDS011;11392;57.390;-2.468;2023-07-22T02:31:19;5.38;;;2.80;;
22449;SDS011;11392;57.390;-2.468;2023-07-22T02:33:48;5.80;;;3.67;;
22449;SDS011;11392;57.390;-2.468;2023-07-22T02:36:15;7.00;;;3.78;;
22449;SDS011;11392;57.390;-2.468;2023-07-22T02:38:42;4.68;;;3.03;;
22449;SDS011;11392;57.390;-2.468;2023-07-22T02:41:10;5.03;;;3.13;;
22449;SDS011;11392;57.390;-2.468;2023-07-22T02:43:37;6.50;;;3.47;;
22449;SDS011;11392;57.390;-2.468;2023-07-22T02:46:06;8.07;;;3.30;;
22449;SDS011;11392;57.390;-2.468;2023-07-22T02:48:34;5.15;;;3.00;;
22449;SDS011;11392;57.390;-2.468;2023-07-22T02:51:03;6.43;;;3.33;;
22449;SDS011;11392;57.390;-2.468;2023-07-22T02:53:31;5.57;;;2.95;;
22449;SDS011;11392;57.390;-2.468;2023-07-22T02:55:59;4.82;;;2.60;;
22449;SDS011;11392;57.390;-2.468;2023-07-22T02:58:26;3.50;;;2.70;;
22449;SDS011;11392;57.390;-2.468;2023-07-22T03:00:53;4.22;;;3.05;;
22449;SDS011;11392;57.390;-2.468;2023-07-22T03:03:20;2.80;;;2.22;;
22449;SDS011;11392;57.390;-2.468;2023-07-22T03:05:47;4.60;;;2.70;;
22449;SDS011;11392;57.390;-2.468;2023-07-22T03:08:15;5.43;;;3.00;;
22449;SDS011;11392;57.390;-2.468;2023-07-22T03:10:44;9.55;;;3.35;;
22449;SDS011;11392;57.390;-2.468;2023-07-22T03:13:15;4.15;;;2.30;;
22449;SDS011;11392;57.390;-2.468;2023-07-22T03:15:42;5.28;;;2.75;;
22449;SDS011;11392;57.390;-2.468;2023-07-22T03:18:10;3.35;;;2.35;;
22449;SDS011;11392;57.390;-2.468;2023-07-22T03:20:37;8.10;;;2.97;;
22449;SDS011;11392;57.390;-2.468;2023-07-22T03:23:05;4.95;;;2.80;;
22449;SDS011;11392;57.390;-2.468;2023-07-22T03:25:34;9.60;;;3.35;;
22449;SDS011;11392;57.390;-2.468;2023-07-22T03:28:04;3.63;;;2.95;;
22449;SDS011;11392;57.390;-2.468;2023-07-22T03:30:32;4.18;;;2.65;;
22449;SDS011;11392;57.390;-2.468;2023-07-22T03:33:00;6.28;;;2.80;;
22449;SDS011;11392;57.390;-2.468;2023-07-22T03:35:27;4.88;;;3.53;;
22449;SDS011;11392;57.390;-2.468;2023-07-22T03:37:55;5.10;;;2.55;;
22449;SDS011;11392;57.390;-2.468;2023-07-22T03:40:22;6.78;;;3.58;;
22449;SDS011;11392;57.390;-2.468;2023-07-22T03:42:57;6.22;;;3.38;;
22449;SDS011;11392;57.390;-2.468;2023-07-22T03:45:24;4.13;;;2.80;;
22449;SDS011;11392;57.390;-2.468;2023-07-22T03:47:52;4.47;;;2.67;;
22449;SDS011;11392;57.390;-2.468;2023-07-22T03:50:24;4.30;;;3.42;;
22449;SDS011;11392;57.390;-2.468;2023-07-22T03:52:51;5.60;;;3.20;;
22449;SDS011;11392;57.390;-2.468;2023-07-22T03:55:18;4.55;;;3.03;;
22449;SDS011;11392;57.390;-2.468;2023-07-22T03:57:46;5.75;;;3.25;;
22449;SDS011;11392;57.390;-2.468;2023-07-22T04:00:13;4.50;;;3.00;;
22449;SDS011;11392;57.390;-2.468;2023-07-22T04:02:40;4.80;;;2.40;;
22449;SDS011;11392;57.390;-2.468;2023-07-22T04:05:08;5.65;;;3.00;;
22449;SDS011;11392;57.390;-2.468;2023-07-22T04:07:36;4.68;;;2.92;;
22449;SDS011;11392;57.390;-2.468;2023-07-22T04:10:03;4.35;;;2.65;;
22449;SDS011;11392;57.390;-2.468;2023-07-22T04:12:30;4.68;;;2.72;;
22449;SDS011;11392;57.390;-2.468;2023-07-22T04:14:57;3.58;;;2.50;;
22449;SDS011;11392;57.390;-2.468;2023-07-22T04:17:24;3.70;;;2.50;;
22449;SDS011;11392;57.390;-2.468;2023-07-22T04:19:51;2.90;;;2.03;;
22449;SDS011;11392;57.390;-2.468;2023-07-22T04:22:20;4.30;;;2.58;;
22449;SDS011;11392;57.390;-2.468;2023-07-22T04:24:47;3.95;;;3.40;;
22449;SDS011;11392;57.390;-2.468;2023-07-22T04:27:15;5.25;;;3.10;;
22449;SDS011;11392;57.390;-2.468;2023-07-22T04:29:43;7.10;;;3.58;;
22449;SDS011;11392;57.390;-2.468;2023-07-22T04:32:10;5.95;;;3.30;;
22449;SDS011;11392;57.390;-2.468;2023-07-22T04:34:37;5.55;;;3.53;;
22449;SDS011;11392;57.390;-2.468;2023-07-22T04:37:04;7.53;;;4.03;;
22449;SDS011;11392;57.390;-2.468;2023-07-22T04:39:32;6.20;;;4.05;;
22449;SDS011;11392;57.390;-2.468;2023-07-22T04:41:59;5.65;;;3.63;;
22449;SDS011;11392;57.390;-2.468;2023-07-22T04:44:26;4.60;;;3.20;;
22449;SDS011;11392;57.390;-2.468;2023-07-22T04:46:53;5.57;;;3.47;;
22449;SDS011;11392;57.390;-2.468;2023-07-22T04:49:20;6.97;;;3.70;;
22449;SDS011;11392;57.390;-2.468;2023-07-22T04:51:48;4.78;;;3.50;;
22449;SDS011;11392;57.390;-2.468;2023-07-22T04:54:16;6.55;;;4.13;;
22449;SDS011;11392;57.390;-2.468;2023-07-22T04:56:44;6.75;;;3.60;;
22449;SDS011;11392;57.390;-2.468;2023-07-22T04:59:11;12.50;;;4.22;;
22449;SDS011;11392;57.390;-2.468;2023-07-22T05:01:40;10.65;;;3.92;;
22449;SDS011;11392;57.390;-2.468;2023-07-22T05:04:08;11.02;;;3.47;;
22449;SDS011;11392;57.390;-2.468;2023-07-22T05:06:35;4.72;;;3.30;;
22449;SDS011;11392;57.390;-2.468;2023-07-22T05:09:02;8.18;;;3.20;;
22449;SDS011;11392;57.390;-2.468;2023-07-22T05:11:30;5.07;;;3.70;;
22449;SDS011;11392;57.390;-2.468;2023-07-22T05:13:57;10.85;;;3.45;;
22449;SDS011;11392;57.390;-2.468;2023-07-22T05:16:24;7.13;;;3.70;;
22449;SDS011;11392;57.390;-2.468;2023-07-22T05:18:52;6.40;;;2.90;;
22449;SDS011;11392;57.390;-2.468;2023-07-22T05:21:19;6.78;;;2.80;;
22449;SDS011;11392;57.390;-2.468;2023-07-22T05:23:46;4.55;;;2.50;;
22449;SDS011;11392;57.390;-2.468;2023-07-22T05:26:13;9.82;;;2.65;;
22449;SDS011;11392;57.390;-2.468;2023-07-22T05:28:40;12.25;;;2.85;;
22449;SDS011;11392;57.390;-2.468;2023-07-22T05:31:08;6.68;;;2.97;;
22449;SDS011;11392;57.390;-2.468;2023-07-22T05:33:35;4.60;;;2.60;;
22449;SDS011;11392;57.390;-2.468;2023-07-22T05:36:03;6.50;;;3.33;;
22449;SDS011;11392;57.390;-2.468;2023-07-22T05:38:30;3.75;;;2.13;;
22449;SDS011;11392;57.390;-2.468;2023-07-22T05:40:57;3.78;;;2.63;;
22449;SDS011;11392;57.390;-2.468;2023-07-22T05:43:25;5.82;;;3.20;;
22449;SDS011;11392;57.390;-2.468;2023-07-22T05:45:52;5.20;;;3.40;;
22449;SDS011;11392;57.390;-2.468;2023-07-22T05:48:19;5.13;;;3.95;;
22449;SDS011;11392;57.390;-2.468;2023-07-22T05:50:48;5.55;;;3.55;;
22449;SDS011;11392;57.390;-2.468;2023-07-22T05:53:15;5.63;;;4.13;;
22449;SDS011;11392;57.390;-2.468;2023-07-22T05:55:43;2.72;;;2.45;;
22449;SDS011;11392;57.390;-2.468;2023-07-22T05:58:16;2.85;;;2.65;;
22449;SDS011;11392;57.390;-2.468;2023-07-22T06:00:47;2.70;;;2.42;;
22449;SDS011;11392;57.390;-2.468;2023-07-22T06:03:14;2.80;;;2.50;;
22449;SDS011;11392;57.390;-2.468;2023-07-22T06:05:41;2.67;;;1.98;;
22449;SDS011;11392;57.390;-2.468;2023-07-22T06:08:08;2.90;;;2.60;;
22449;SDS011;11392;57.390;-2.468;2023-07-22T06:10:35;2.78;;;2.40;;
22449;SDS011;11392;57.390;-2.468;2023-07-22T06:13:04;2.50;;;2.10;;
22449;SDS011;11392;57.390;-2.468;2023-07-22T06:15:31;2.13;;;1.90;;
22449;SDS011;11392;57.390;-2.468;2023-07-22T06:17:59;3.35;;;2.20;;
22449;SDS011;11392;57.390;-2.468;2023-07-22T06:20:26;2.95;;;2.65;;
22449;SDS011;11392;57.390;-2.468;2023-07-22T06:22:54;4.03;;;2.83;;
22449;SDS011;11392;57.390;-2.468;2023-07-22T06:25:21;4.60;;;3.25;;
22449;SDS011;11392;57.390;-2.468;2023-07-22T06:27:48;4.53;;;3.70;;
22449;SDS011;11392;57.390;-2.468;2023-07-22T06:30:15;4.60;;;3.50;;
22449;SDS011;11392;57.390;-2.468;2023-07-22T06:32:42;4.13;;;3.35;;
22449;SDS011;11392;57.390;-2.468;2023-07-22T06:35:09;4.75;;;3.90;;
22449;SDS011;11392;57.390;-2.468;2023-07-22T06:37:36;5.13;;;3.95;;
22449;SDS011;11392;57.390;-2.468;2023-07-22T06:40:04;4.32;;;3.38;;
22449;SDS011;11392;57.390;-2.468;2023-07-22T06:42:31;5.13;;;3.70;;
22449;SDS011;11392;57.390;-2.468;2023-07-22T06:44:58;4.75;;;3.53;;
22449;SDS011;11392;57.390;-2.468;2023-07-22T06:47:25;4.68;;;3.92;;
22449;SDS011;11392;57.390;-2.468;2023-07-22T06:49:52;6.82;;;5.22;;
22449;SDS011;11392;57.390;-2.468;2023-07-22T06:52:19;6.60;;;4.50;;
22449;SDS011;11392;57.390;-2.468;2023-07-22T06:54:46;8.07;;;5.57;;
22449;SDS011;11392;57.390;-2.468;2023-07-22T06:57:13;5.93;;;4.95;;
22449;SDS011;11392;57.390;-2.468;2023-07-22T06:59:40;7.30;;;4.93;;
22449;SDS011;11392;57.390;-2.468;2023-07-22T07:02:07;6.93;;;5.57;;
22449;SDS011;11392;57.390;-2.468;2023-07-22T07:04:35;6.00;;;4.60;;
22449;SDS011;11392;57.390;-2.468;2023-07-22T07:07:02;8.13;;;5.65;;
22449;SDS011;11392;57.390;-2.468;2023-07-22T07:09:29;7.70;;;6.43;;
22449;SDS011;11392;57.390;-2.468;2023-07-22T07:11:56;6.10;;;5.20;;
22449;SDS011;11392;57.390;-2.468;2023-07-22T07:14:23;8.20;;;5.50;;
22449;SDS011;11392;57.390;-2.468;2023-07-22T07:16:54;7.65;;;5.15;;
22449;SDS011;11392;57.390;-2.468;2023-07-22T07:19:21;7.40;;;5.28;;
22449;SDS011;11392;57.390;-2.468;2023-07-22T07:21:48;6.15;;;5.38;;
22449;SDS011;11392;57.390;-2.468;2023-07-22T07:24:16;6.00;;;5.05;;
22449;SDS011;11392;57.390;-2.468;2023-07-22T07:26:43;6.00;;;5.13;;
22449;SDS011;11392;57.390;-2.468;2023-07-22T07:29:10;7.35;;;5.63;;
22449;SDS011;11392;57.390;-2.468;2023-07-22T07:31:39;7.88;;;5.60;;
22449;SDS011;11392;57.390;-2.468;2023-07-22T07:34:06;8.88;;;5.60;;
22449;SDS011;11392;57.390;-2.468;2023-07-22T07:36:33;8.57;;;5.50;;
22449;SDS011;11392;57.390;-2.468;2023-07-22T07:39:00;8.00;;;5.22;;
22449;SDS011;11392;57.390;-2.468;2023-07-22T07:41:27;7.28;;;5.38;;
22449;SDS011;11392;57.390;-2.468;2023-07-22T07:43:54;6.60;;;4.38;;
22449;SDS011;11392;57.390;-2.468;2023-07-22T07:46:22;5.45;;;4.63;;
22449;SDS011;11392;57.390;-2.468;2023-07-22T07:48:58;5.63;;;4.88;;
22449;SDS011;11392;57.390;-2.468;2023-07-22T07:51:28;6.53;;;5.28;;
22449;SDS011;11392;57.390;-2.468;2023-07-22T07:53:57;4.75;;;4.03;;
22449;SDS011;11392;57.390;-2.468;2023-07-22T07:56:24;5.43;;;4.15;;
22449;SDS011;11392;57.390;-2.468;2023-07-22T07:58:53;6.88;;;4.32;;
22449;SDS011;11392;57.390;-2.468;2023-07-22T08:01:20;8.75;;;5.00;;
22449;SDS011;11392;57.390;-2.468;2023-07-22T08:03:48;5.95;;;4.57;;
22449;SDS011;11392;57.390;-2.468;2023-07-22T08:06:15;4.63;;;3.78;;
22449;SDS011;11392;57.390;-2.468;2023-07-22T08:08:45;5.88;;;4.50;;
22449;SDS011;11392;57.390;-2.468;2023-07-22T08:11:13;4.18;;;3.70;;
22449;SDS011;11392;57.390;-2.468;2023-07-22T08:13:41;4.95;;;3.97;;
22449;SDS011;11392;57.390;-2.468;2023-07-22T08:16:11;4.13;;;3.72;;
22449;SDS011;11392;57.390;-2.468;2023-07-22T08:18:39;3.97;;;3.33;;
22449;SDS011;11392;57.390;-2.468;2023-07-22T08:21:07;4.93;;;4.43;;
22449;SDS011;11392;57.390;-2.468;2023-07-22T08:23:34;4.45;;;3.63;;
22449;SDS011;11392;57.390;-2.468;2023-07-22T08:26:03;3.83;;;3.42;;
22449;SDS011;11392;57.390;-2.468;2023-07-22T08:28:32;3.85;;;3.30;;
22449;SDS011;11392;57.390;-2.468;2023-07-22T08:31:00;4.65;;;4.03;;
22449;SDS011;11392;57.390;-2.468;2023-07-22T08:33:28;4.43;;;3.42;;
22449;SDS011;11392;57.390;-2.468;2023-07-22T08:36:07;4.10;;;3.70;;
22449;SDS011;11392;57.390;-2.468;2023-07-22T08:38:35;4.00;;;3.60;;
22449;SDS011;11392;57.390;-2.468;2023-07-22T08:41:02;6.47;;;4.05;;
22449;SDS011;11392;57.390;-2.468;2023-07-22T08:43:29;3.90;;;3.50;;
22449;SDS011;11392;57.390;-2.468;2023-07-22T08:45:59;4.38;;;3.70;;
22449;SDS011;11392;57.390;-2.468;2023-07-22T08:48:29;4.25;;;3.65;;
22449;SDS011;11392;57.390;-2.468;2023-07-22T08:51:06;4.90;;;3.53;;
22449;SDS011;11392;57.390;-2.468;2023-07-22T08:53:37;4.60;;;3.50;;
22449;SDS011;11392;57.390;-2.468;2023-07-22T08:56:04;4.30;;;3.67;;
22449;SDS011;11392;57.390;-2.468;2023-07-22T08:58:31;4.75;;;3.55;;
22449;SDS011;11392;57.390;-2.468;2023-07-22T09:01:00;4.72;;;3.50;;
22449;SDS011;11392;57.390;-2.468;2023-07-22T09:03:29;4.20;;;3.13;;
22449;SDS011;11392;57.390;-2.468;2023-07-22T09:05:56;3.70;;;3.22;;
22449;SDS011;11392;57.390;-2.468;2023-07-22T09:08:23;4.60;;;3.53;;
22449;SDS011;11392;57.390;-2.468;2023-07-22T09:10:50;4.28;;;3.58;;
22449;SDS011;11392;57.390;-2.468;2023-07-22T09:13:18;3.50;;;3.10;;
22449;SDS011;11392;57.390;-2.468;2023-07-22T09:15:46;4.35;;;3.30;;
22449;SDS011;11392;57.390;-2.468;2023-07-22T09:18:16;4.10;;;3.40;;
22449;SDS011;11392;57.390;-2.468;2023-07-22T09:20:43;4.57;;;3.70;;
22449;SDS011;11392;57.390;-2.468;2023-07-22T09:23:11;4.55;;;3.00;;
22449;SDS011;11392;57.390;-2.468;2023-07-22T09:25:40;3.78;;;2.88;;
22449;SDS011;11392;57.390;-2.468;2023-07-22T09:28:09;4.68;;;3.22;;
22449;SDS011;11392;57.390;-2.468;2023-07-22T09:30:37;3.67;;;3.10;;
22449;SDS011;11392;57.390;-2.468;2023-07-22T09:33:06;5.97;;;3.47;;
22449;SDS011;11392;57.390;-2.468;2023-07-22T09:35:47;3.88;;;3.30;;
22449;SDS011;11392;57.390;-2.468;2023-07-22T09:38:22;3.38;;;2.85;;
22449;SDS011;11392;57.390;-2.468;2023-07-22T09:40:53;4.30;;;3.05;;
22449;SDS011;11392;57.390;-2.468;2023-07-22T09:43:21;3.50;;;3.20;;
22449;SDS011;11392;57.390;-2.468;2023-07-22T09:45:49;3.45;;;3.13;;
22449;SDS011;11392;57.390;-2.468;2023-07-22T09:48:17;4.47;;;3.20;;
22449;SDS011;11392;57.390;-2.468;2023-07-22T09:50:44;4.30;;;3.38;;
22449;SDS011;11392;57.390;-2.468;2023-07-22T09:53:14;3.70;;;3.22;;
22449;SDS011;11392;57.390;-2.468;2023-07-22T09:55:43;4.03;;;3.17;;
22449;SDS011;11392;57.390;-2.468;2023-07-22T09:58:10;4.78;;;3.40;;
22449;SDS011;11392;57.390;-2.468;2023-07-22T10:00:42;4.68;;;3.33;;
22449;SDS011;11392;57.390;-2.468;2023-07-22T10:03:15;4.13;;;3.58;;
22449;SDS011;11392;57.390;-2.468;2023-07-22T10:05:45;3.38;;;3.08;;
22449;SDS011;11392;57.390;-2.468;2023-07-22T10:08:14;3.58;;;3.25;;
22449;SDS011;11392;57.390;-2.468;2023-07-22T10:10:44;3.45;;;3.05;;
22449;SDS011;11392;57.390;-2.468;2023-07-22T10:13:12;3.50;;;3.03;;
22449;SDS011;11392;57.390;-2.468;2023-07-22T10:15:39;3.85;;;3.45;;
22449;SDS011;11392;57.390;-2.468;2023-07-22T10:18:06;3.63;;;3.03;;
22449;SDS011;11392;57.390;-2.468;2023-07-22T10:20:37;4.32;;;3.42;;
22449;SDS011;11392;57.390;-2.468;2023-07-22T10:23:06;4.47;;;3.08;;
22449;SDS011;11392;57.390;-2.468;2023-07-22T10:25:37;4.35;;;3.55;;
22449;SDS011;11392;57.390;-2.468;2023-07-22T10:28:06;3.92;;;3.38;;
22449;SDS011;11392;57.390;-2.468;2023-07-22T10:30:33;4.80;;;3.25;;
22449;SDS011;11392;57.390;-2.468;2023-07-22T10:33:00;5.28;;;3.40;;
22449;SDS011;11392;57.390;-2.468;2023-07-22T10:40:45;3.75;;;2.75;;
22449;SDS011;11392;57.390;-2.468;2023-07-22T10:43:32;4.50;;;3.65;;
22449;SDS011;11392;57.390;-2.468;2023-07-22T10:46:12;4.15;;;3.65;;
22449;SDS011;11392;57.390;-2.468;2023-07-22T10:48:40;5.72;;;3.40;;
22449;SDS011;11392;57.390;-2.468;2023-07-22T10:51:12;4.63;;;3.60;;
22449;SDS011;11392;57.390;-2.468;2023-07-22T10:53:45;5.20;;;3.20;;
22449;SDS011;11392;57.390;-2.468;2023-07-22T10:56:20;3.97;;;3.25;;
22449;SDS011;11392;57.390;-2.468;2023-07-22T11:11:55;4.20;;;3.38;;
22449;SDS011;11392;57.390;-2.468;2023-07-22T11:14:25;3.97;;;3.25;;
22449;SDS011;11392;57.390;-2.468;2023-07-22T11:16:53;4.03;;;3.15;;
22449;SDS011;11392;57.390;-2.468;2023-07-22T11:19:23;6.50;;;3.25;;
22449;SDS011;11392;57.390;-2.468;2023-07-22T11:21:52;4.75;;;3.30;;
22449;SDS011;11392;57.390;-2.468;2023-07-22T11:24:21;6.97;;;3.67;;
22449;SDS011;11392;57.390;-2.468;2023-07-22T11:26:50;4.53;;;3.35;;
22449;SDS011;11392;57.390;-2.468;2023-07-22T11:29:18;5.60;;;3.17;;
22449;SDS011;11392;57.390;-2.468;2023-07-22T11:31:45;4.40;;;3.58;;
22449;SDS011;11392;57.390;-2.468;2023-07-22T11:34:18;5.13;;;3.55;;
22449;SDS011;11392;57.390;-2.468;2023-07-22T11:36:47;4.80;;;3.75;;
22449;SDS011;11392;57.390;-2.468;2023-07-22T11:39:16;4.47;;;3.65;;
22449;SDS011;11392;57.390;-2.468;2023-07-22T11:42:03;4.90;;;3.45;;
22449;SDS011;11392;57.390;-2.468;2023-07-22T11:44:30;3.80;;;3.30;;
22449;SDS011;11392;57.390;-2.468;2023-07-22T11:46:59;4.18;;;2.83;;
22449;SDS011;11392;57.390;-2.468;2023-07-22T11:49:36;4.18;;;2.80;;
22449;SDS011;11392;57.390;-2.468;2023-07-22T11:52:08;3.70;;;2.88;;
22449;SDS011;11392;57.390;-2.468;2023-07-22T11:54:37;3.78;;;2.97;;
22449;SDS011;11392;57.390;-2.468;2023-07-22T11:57:23;4.65;;;3.05;;
22449;SDS011;11392;57.390;-2.468;2023-07-22T11:59:51;3.13;;;2.80;;
22449;SDS011;11392;57.390;-2.468;2023-07-22T12:02:23;3.80;;;3.30;;
22449;SDS011;11392;57.390;-2.468;2023-07-22T12:04:59;3.53;;;3.05;;
22449;SDS011;11392;57.390;-2.468;2023-07-22T12:07:32;3.67;;;3.17;;
22449;SDS011;11392;57.390;-2.468;2023-07-22T12:10:04;3.80;;;2.90;;
22449;SDS011;11392;57.390;-2.468;2023-07-22T12:12:42;3.47;;;2.97;;
22449;SDS011;11392;57.390;-2.468;2023-07-22T12:20:13;3.85;;;2.92;;
22449;SDS011;11392;57.390;-2.468;2023-07-22T12:22:41;9.23;;;3.10;;
22449;SDS011;11392;57.390;-2.468;2023-07-22T12:25:09;3.38;;;2.83;;
22449;SDS011;11392;57.390;-2.468;2023-07-22T12:27:36;3.42;;;3.10;;
22449;SDS011;11392;57.390;-2.468;2023-07-22T12:30:04;2.70;;;2.30;;
22449;SDS011;11392;57.390;-2.468;2023-07-22T12:32:33;4.38;;;3.08;;
22449;SDS011;11392;57.390;-2.468;2023-07-22T12:35:01;3.58;;;2.92;;
22449;SDS011;11392;57.390;-2.468;2023-07-22T12:37:30;3.20;;;2.50;;
22449;SDS011;11392;57.390;-2.468;2023-07-22T12:39:57;3.15;;;2.75;;
22449;SDS011;11392;57.390;-2.468;2023-07-22T12:42:24;3.45;;;2.70;;
22449;SDS011;11392;57.390;-2.468;2023-07-22T12:44:51;2.67;;;2.28;;
22449;SDS011;11392;57.390;-2.468;2023-07-22T12:47:19;3.55;;;2.40;;
22449;SDS011;11392;57.390;-2.468;2023-07-22T12:49:46;3.40;;;2.85;;
22449;SDS011;11392;57.390;-2.468;2023-07-22T12:52:13;2.88;;;2.30;;
22449;SDS011;11392;57.390;-2.468;2023-07-22T12:54:40;6.75;;;3.88;;
22449;SDS011;11392;57.390;-2.468;2023-07-22T12:57:07;3.78;;;2.90;;
22449;SDS011;11392;57.390;-2.468;2023-07-22T12:59:34;2.97;;;2.67;;
22449;SDS011;11392;57.390;-2.468;2023-07-22T13:02:01;3.13;;;2.50;;
22449;SDS011;11392;57.390;-2.468;2023-07-22T13:04:29;4.18;;;3.13;;
22449;SDS011;11392;57.390;-2.468;2023-07-22T13:06:56;3.22;;;2.63;;
22449;SDS011;11392;57.390;-2.468;2023-07-22T13:09:23;2.90;;;2.60;;
22449;SDS011;11392;57.390;-2.468;2023-07-22T13:11:50;3.92;;;3.42;;
22449;SDS011;11392;57.390;-2.468;2023-07-22T13:14:17;3.17;;;2.53;;
22449;SDS011;11392;57.390;-2.468;2023-07-22T13:16:44;4.20;;;2.95;;
22449;SDS011;11392;57.390;-2.468;2023-07-22T13:19:11;3.08;;;2.63;;
22449;SDS011;11392;57.390;-2.468;2023-07-22T13:21:39;3.20;;;2.90;;
22449;SDS011;11392;57.390;-2.468;2023-07-22T13:24:06;4.97;;;2.72;;
22449;SDS011;11392;57.390;-2.468;2023-07-22T13:26:34;3.53;;;2.75;;
22449;SDS011;11392;57.390;-2.468;2023-07-22T13:29:04;4.13;;;3.10;;
22449;SDS011;11392;57.390;-2.468;2023-07-22T13:31:31;4.13;;;3.25;;
22449;SDS011;11392;57.390;-2.468;2023-07-22T13:33:58;4.07;;;2.85;;
22449;SDS011;11392;57.390;-2.468;2023-07-22T13:36:25;4.70;;;3.30;;
22449;SDS011;11392;57.390;-2.468;2023-07-22T13:38:52;5.35;;;3.13;;
22449;SDS011;11392;57.390;-2.468;2023-07-22T13:41:19;3.90;;;3.10;;
22449;SDS011;11392;57.390;-2.468;2023-07-22T13:43:46;4.28;;;2.92;;
22449;SDS011;11392;57.390;-2.468;2023-07-22T13:46:13;6.40;;;3.13;;
22449;SDS011;11392;57.390;-2.468;2023-07-22T13:48:40;4.13;;;3.15;;
22449;SDS011;11392;57.390;-2.468;2023-07-22T13:51:07;3.38;;;3.08;;
22449;SDS011;11392;57.390;-2.468;2023-07-22T13:53:34;3.00;;;2.70;;
22449;SDS011;11392;57.390;-2.468;2023-07-22T13:56:01;4.13;;;2.78;;
22449;SDS011;11392;57.390;-2.468;2023-07-22T13:58:29;2.95;;;2.65;;
22449;SDS011;11392;57.390;-2.468;2023-07-22T14:00:56;4.57;;;3.15;;
22449;SDS011;11392;57.390;-2.468;2023-07-22T14:03:27;3.70;;;2.90;;
22449;SDS011;11392;57.390;-2.468;2023-07-22T14:05:54;3.40;;;3.08;;
22449;SDS011;11392;57.390;-2.468;2023-07-22T14:08:21;3.45;;;2.80;;
22449;SDS011;11392;57.390;-2.468;2023-07-22T14:10:48;4.88;;;2.55;;
22449;SDS011;11392;57.390;-2.468;2023-07-22T14:13:15;3.33;;;2.72;;
22449;SDS011;11392;57.390;-2.468;2023-07-22T14:15:42;5.10;;;3.03;;
22449;SDS011;11392;57.390;-2.468;2023-07-22T14:18:09;3.67;;;2.63;;
22449;SDS011;11392;57.390;-2.468;2023-07-22T14:20:36;3.15;;;2.47;;
22449;SDS011;11392;57.390;-2.468;2023-07-22T14:23:03;3.47;;;2.78;;
22449;SDS011;11392;57.390;-2.468;2023-07-22T14:25:31;5.50;;;2.63;;
22449;SDS011;11392;57.390;-2.468;2023-07-22T14:27:58;5.35;;;3.00;;
22449;SDS011;11392;57.390;-2.468;2023-07-22T14:30:25;4.15;;;3.45;;
22449;SDS011;11392;57.390;-2.468;2023-07-22T14:32:52;3.10;;;2.75;;
22449;SDS011;11392;57.390;-2.468;2023-07-22T14:35:19;6.00;;;3.20;;
22449;SDS011;11392;57.390;-2.468;2023-07-22T14:37:46;4.78;;;2.85;;
22449;SDS011;11392;57.390;-2.468;2023-07-22T14:40:13;5.05;;;2.60;;
22449;SDS011;11392;57.390;-2.468;2023-07-22T14:42:40;3.03;;;2.70;;
22449;SDS011;11392;57.390;-2.468;2023-07-22T14:45:08;2.97;;;2.67;;
22449;SDS011;11392;57.390;-2.468;2023-07-22T14:47:35;3.67;;;2.63;;
22449;SDS011;11392;57.390;-2.468;2023-07-22T14:50:02;5.57;;;3.20;;
22449;SDS011;11392;57.390;-2.468;2023-07-22T14:52:30;3.97;;;2.97;;
22449;SDS011;11392;57.390;-2.468;2023-07-22T14:54:57;3.50;;;2.70;;
22449;SDS011;11392;57.390;-2.468;2023-07-22T14:57:24;3.55;;;2.60;;
22449;SDS011;11392;57.390;-2.468;2023-07-22T14:59:55;3.22;;;2.75;;
22449;SDS011;11392;57.390;-2.468;2023-07-22T15:02:22;4.15;;;2.90;;